Time;durP1;ratioP1;P1;durP2;ratioP2;P2;SDS_P1;SDS_P2;PMS_P1;PMS_P2;Temp;Humidity;BMP_temperature;BMP_pressure;BME280_temperature;BME280_humidity;BME280_pressure;Samples;Min_cycle;Max_cycle;Signal;HPM_P1;HPM_P2
2022/04/04 00:01:26;;;;;;;;;;;3.00;99.90;;;;;;5018766;28;19926;-79
2022/04/04 00:03:52;;;;;;;;;;;3.00;99.90;;;;;;5020785;28;20387;-78
2022/04/04 00:06:20;;;;;;;;;;;3.00;99.90;;;;;;5006380;28;20012;-78
2022/04/04 00:08:47;;;;;;;;;;;3.00;99.90;;;;;;5027091;28;20415;-78
2022/04/04 00:11:13;;;;;;;;;;;3.00;99.90;;;;;;5016910;28;19937;-79
2022/04/04 00:13:40;;;;;;;;;;;3.00;99.90;;;;;;5019723;28;19926;-79
2022/04/04 00:16:07;;;;;;;;;;;3.10;99.90;;;;;;5021260;28;19975;-79
2022/04/04 00:18:34;;;;;;;;;;;3.00;99.90;;;;;;5023784;28;19929;-79
2022/04/04 00:21:01;;;;;;;;;;;3.00;99.90;;;;;;5018605;28;19996;-79
2022/04/04 00:23:27;;;;;;;;;;;3.10;99.90;;;;;;5025828;28;20020;-81
2022/04/04 00:25:54;;;;;;;;;;;3.00;99.90;;;;;;5008709;28;19925;-80
2022/04/04 00:28:20;;;;;;;;;;;3.10;99.90;;;;;;5008076;28;19925;-79
2022/04/04 00:30:47;;;;;;;;;;;3.10;99.90;;;;;;5023685;28;19932;-79
2022/04/04 00:33:13;;;;;;;;;;;3.10;99.90;;;;;;5021903;28;19929;-80
2022/04/04 00:35:40;;;;;;;;;;;3.10;99.90;;;;;;5014925;28;19932;-80
2022/04/04 00:38:08;;;;;;;;;;;3.10;99.90;;;;;;5007185;28;19926;-80
2022/04/04 00:40:34;;;;;;;;;;;3.10;99.90;;;;;;5011229;28;19979;-80
2022/04/04 00:43:01;;;;;;;;;;;3.20;99.90;;;;;;5025102;28;19932;-80
2022/04/04 00:45:28;;;;;;;;;;;3.30;99.90;;;;;;5007003;28;19929;-82
2022/04/04 00:47:54;;;;;;;;;;;3.20;99.90;;;;;;5021219;28;19962;-80
2022/04/04 00:50:22;;;;;;;;;;;3.20;99.90;;;;;;5020727;28;19932;-79
2022/04/04 00:52:49;;;;;;;;;;;3.20;99.90;;;;;;5027642;28;19932;-79
2022/04/04 00:55:15;;;;;;;;;;;3.20;99.90;;;;;;5007239;28;19925;-79
2022/04/04 00:57:42;;;;;;;;;;;3.30;99.90;;;;;;5027451;28;19925;-79
2022/04/04 01:00:09;;;;;;;;;;;3.30;99.90;;;;;;5019661;28;19932;-79
2022/04/04 01:02:35;;;;;;;;;;;3.30;99.90;;;;;;5018485;28;19925;-79
2022/04/04 01:05:03;;;;;;;;;;;3.40;99.90;;;;;;5010091;28;19925;-78
2022/04/04 01:07:30;;;;;;;;;;;3.30;99.90;;;;;;5024144;28;19960;-80
2022/04/04 01:09:56;;;;;;;;;;;3.30;99.90;;;;;;4999875;28;19933;-80
2022/04/04 01:12:23;;;;;;;;;;;3.30;99.90;;;;;;5022249;28;19931;-79
2022/04/04 01:14:49;;;;;;;;;;;3.40;99.90;;;;;;5027073;28;19925;-79
2022/04/04 01:17:16;;;;;;;;;;;3.40;99.90;;;;;;5012066;28;19925;-80
2022/04/04 01:19:43;;;;;;;;;;;3.30;99.90;;;;;;5023108;28;19936;-79
2022/04/04 01:22:09;;;;;;;;;;;3.40;99.90;;;;;;5018703;28;20008;-79
2022/04/04 01:24:37;;;;;;;;;;;3.40;99.90;;;;;;5031960;28;19929;-79
2022/04/04 01:27:03;;;;;;;;;;;3.40;99.90;;;;;;5028816;28;20384;-79
2022/04/04 01:29:30;;;;;;;;;;;3.50;99.90;;;;;;5025063;28;19925;-79
2022/04/04 01:31:56;;;;;;;;;;;3.40;99.90;;;;;;5031649;28;19979;-79
2022/04/04 01:34:23;;;;;;;;;;;3.50;99.90;;;;;;5018974;28;19929;-79
2022/04/04 01:36:49;;;;;;;;;;;3.40;99.90;;;;;;5000229;28;19925;-79
2022/04/04 01:39:16;;;;;;;;;;;3.50;99.90;;;;;;5016766;28;20016;-80
2022/04/04 01:41:43;;;;;;;;;;;3.50;99.90;;;;;;5030814;28;19929;-80
2022/04/04 01:44:09;;;;;;;;;;;3.50;99.90;;;;;;5030616;28;19972;-80
2022/04/04 01:46:36;;;;;;;;;;;3.50;99.90;;;;;;5028158;28;19926;-80
2022/04/04 01:49:02;;;;;;;;;;;3.40;99.90;;;;;;5025602;28;20005;-80
2022/04/04 01:51:29;;;;;;;;;;;3.40;99.90;;;;;;5017876;28;20013;-79
2022/04/04 01:53:55;;;;;;;;;;;3.50;99.90;;;;;;5028256;28;19929;-80
2022/04/04 01:56:22;;;;;;;;;;;3.50;99.90;;;;;;5013109;28;19932;-80
2022/04/04 01:58:48;;;;;;;;;;;3.50;99.90;;;;;;5023345;28;19931;-80
2022/04/04 02:01:15;;;;;;;;;;;3.50;99.90;;;;;;5018676;28;19932;-78
2022/04/04 02:03:42;;;;;;;;;;;3.50;99.90;;;;;;5006924;28;19933;-79
2022/04/04 02:06:08;;;;;;;;;;;3.60;99.90;;;;;;5008128;28;19925;-78
2022/04/04 02:08:35;;;;;;;;;;;3.60;99.90;;;;;;5027889;28;19924;-81
2022/04/04 02:11:02;;;;;;;;;;;3.60;99.90;;;;;;5019602;28;20328;-81
2022/04/04 02:13:28;;;;;;;;;;;3.60;99.90;;;;;;5030260;28;19932;-79
2022/04/04 02:15:55;;;;;;;;;;;3.70;99.90;;;;;;5015314;28;20048;-79
2022/04/04 02:18:21;;;;;;;;;;;3.70;99.90;;;;;;5032292;28;20020;-79
2022/04/04 02:20:48;;;;;;;;;;;3.80;99.90;;;;;;5027597;28;19925;-80
2022/04/04 02:23:17;;;;;;;;;;;3.70;99.90;;;;;;5032320;28;19925;-82
2022/04/04 02:25:44;;;;;;;;;;;3.70;99.90;;;;;;5026752;28;20401;-80
2022/04/04 02:28:10;;;;;;;;;;;3.70;99.90;;;;;;5026417;28;19925;-79
2022/04/04 02:30:37;;;;;;;;;;;3.70;99.90;;;;;;5021386;28;19929;-82
2022/04/04 02:33:03;;;;;;;;;;;3.70;99.90;;;;;;5010948;28;19929;-79
2022/04/04 02:35:30;;;;;;;;;;;3.70;99.90;;;;;;5007718;28;19925;-80
2022/04/04 02:37:56;;;;;;;;;;;3.70;99.90;;;;;;5024191;28;19925;-79
2022/04/04 02:40:23;;;;;;;;;;;3.70;99.90;;;;;;5032998;28;19936;-79
2022/04/04 02:42:50;;;;;;;;;;;3.70;99.90;;;;;;5011663;28;19925;-79
2022/04/04 02:45:16;;;;;;;;;;;3.70;99.90;;;;;;5019926;28;19925;-79
2022/04/04 02:47:43;;;;;;;;;;;3.80;99.90;;;;;;5017013;28;20408;-79
2022/04/04 02:50:10;;;;;;;;;;;3.80;99.90;;;;;;5028386;28;20345;-79
2022/04/04 02:52:36;;;;;;;;;;;3.80;99.90;;;;;;5022478;28;19926;-79
2022/04/04 02:56:28;;;;;;;;;;;3.80;99.90;;;;;;5029964;28;20160;-79
2022/04/04 02:57:49;;;;;;;;;;;3.80;99.90;;;;;;5011287;28;20337;-79
2022/04/04 03:00:17;;;;;;;;;;;3.90;99.90;;;;;;5021924;28;19935;-78
2022/04/04 03:02:44;;;;;;;;;;;3.90;99.90;;;;;;5023224;28;20419;-80
2022/04/04 03:05:10;;;;;;;;;;;4.00;99.90;;;;;;5023264;28;19972;-79
2022/04/04 03:07:38;;;;;;;;;;;4.00;99.90;;;;;;5026111;28;19929;-79
2022/04/04 03:10:05;;;;;;;;;;;4.00;99.90;;;;;;5029381;28;20365;-79
2022/04/04 03:12:32;;;;;;;;;;;4.00;99.90;;;;;;5022803;28;20012;-79
2022/04/04 03:14:58;;;;;;;;;;;4.00;99.90;;;;;;5014933;28;20261;-78
2022/04/04 03:17:25;;;;;;;;;;;4.10;99.90;;;;;;5016208;28;19925;-80
2022/04/04 03:19:51;;;;;;;;;;;4.10;99.90;;;;;;5028101;28;19955;-80
2022/04/04 03:22:18;;;;;;;;;;;4.20;99.90;;;;;;5024401;28;19926;-80
2022/04/04 03:24:45;;;;;;;;;;;4.20;99.90;;;;;;5012105;28;19940;-79
2022/04/04 03:27:13;;;;;;;;;;;4.30;99.90;;;;;;5025931;28;19974;-80
2022/04/04 03:29:39;;;;;;;;;;;4.40;99.90;;;;;;5027005;28;19929;-79
2022/04/04 03:32:06;;;;;;;;;;;4.40;99.90;;;;;;5014769;28;19925;-79
2022/04/04 03:34:33;;;;;;;;;;;4.40;99.90;;;;;;5025353;28;19925;-80
2022/04/04 03:36:59;;;;;;;;;;;4.50;99.90;;;;;;5011062;28;19936;-79
2022/04/04 03:39:26;;;;;;;;;;;4.60;99.90;;;;;;5029840;28;19933;-79
2022/04/04 03:41:54;;;;;;;;;;;4.60;99.90;;;;;;5019116;28;19932;-79
2022/04/04 03:44:20;;;;;;;;;;;4.60;99.90;;;;;;5027696;28;19932;-80
2022/04/04 03:46:47;;;;;;;;;;;4.60;99.90;;;;;;5008706;28;20268;-80
2022/04/04 03:49:13;;;;;;;;;;;4.70;99.90;;;;;;5029622;28;20376;-79
2022/04/04 03:51:40;;;;;;;;;;;4.70;99.90;;;;;;5031555;28;20262;-81
2022/04/04 03:54:07;;;;;;;;;;;4.70;99.90;;;;;;5018744;28;20047;-79
2022/04/04 03:56:34;;;;;;;;;;;4.70;99.90;;;;;;5023782;28;19933;-80
2022/04/04 03:59:01;;;;;;;;;;;4.80;99.90;;;;;;5025107;28;20046;-79
2022/04/04 04:01:29;;;;;;;;;;;4.80;99.90;;;;;;5029578;28;19932;-80
2022/04/04 04:03:56;;;;;;;;;;;4.80;99.90;;;;;;5014939;28;19925;-78
2022/04/04 04:06:23;;;;;;;;;;;4.70;99.90;;;;;;5008813;28;19925;-80
2022/04/04 04:08:49;;;;;;;;;;;4.70;99.90;;;;;;5022043;28;19972;-80
2022/04/04 04:11:16;;;;;;;;;;;4.70;99.90;;;;;;5025542;28;20351;-79
2022/04/04 04:13:43;;;;;;;;;;;4.80;99.90;;;;;;5009199;28;19969;-78
2022/04/04 04:16:10;;;;;;;;;;;4.80;99.90;;;;;;5029830;28;19975;-79
2022/04/04 04:18:36;;;;;;;;;;;4.80;99.90;;;;;;5022886;28;19931;-78
2022/04/04 04:21:03;;;;;;;;;;;4.80;99.90;;;;;;5018272;28;19948;-80
2022/04/04 04:23:29;;;;;;;;;;;4.90;99.90;;;;;;5000751;28;20388;-80
2022/04/04 04:25:56;;;;;;;;;;;4.80;99.90;;;;;;5015006;28;20274;-80
2022/04/04 04:28:23;;;;;;;;;;;4.80;99.90;;;;;;5012858;28;20316;-80
2022/04/04 04:30:49;;;;;;;;;;;4.80;99.90;;;;;;5020642;28;19925;-80
2022/04/04 04:33:16;;;;;;;;;;;4.90;99.90;;;;;;5028052;28;19926;-79
2022/04/04 04:35:42;;;;;;;;;;;4.80;99.90;;;;;;5021313;28;19929;-79
2022/04/04 04:38:09;;;;;;;;;;;4.80;99.90;;;;;;5026282;28;20159;-80
2022/04/04 04:40:36;;;;;;;;;;;4.80;99.90;;;;;;5020755;28;19925;-79
2022/04/04 04:43:02;;;;;;;;;;;4.80;99.90;;;;;;5027772;28;19925;-79
2022/04/04 04:45:29;;;;;;;;;;;4.80;99.90;;;;;;5011126;28;19933;-79
2022/04/04 04:47:55;;;;;;;;;;;4.80;99.90;;;;;;5025883;28;19925;-80
2022/04/04 04:50:22;;;;;;;;;;;4.90;99.90;;;;;;5013028;28;19975;-79
2022/04/04 04:52:48;;;;;;;;;;;4.80;99.90;;;;;;5027478;28;19933;-80
2022/04/04 04:55:15;;;;;;;;;;;4.80;99.90;;;;;;5021911;28;19930;-79
2022/04/04 04:57:42;;;;;;;;;;;4.80;99.90;;;;;;5016209;28;19925;-80
2022/04/04 05:00:08;;;;;;;;;;;4.80;99.90;;;;;;5013355;28;20020;-79
2022/04/04 05:02:35;;;;;;;;;;;4.70;99.90;;;;;;5016753;28;19944;-78
2022/04/04 05:05:01;;;;;;;;;;;4.70;99.90;;;;;;5027075;28;19925;-78
2022/04/04 05:07:28;;;;;;;;;;;4.80;99.90;;;;;;5022407;28;19955;-77
2022/04/04 05:09:54;;;;;;;;;;;4.70;99.90;;;;;;5020439;28;19979;-77
2022/04/04 05:12:21;;;;;;;;;;;4.70;99.90;;;;;;5026115;28;19926;-78
2022/04/04 05:14:48;;;;;;;;;;;4.70;99.90;;;;;;5029874;28;19932;-77
2022/04/04 05:17:15;;;;;;;;;;;4.70;99.90;;;;;;5021113;28;19929;-78
2022/04/04 05:19:42;;;;;;;;;;;4.70;99.90;;;;;;5007258;28;20415;-78
2022/04/04 05:22:08;;;;;;;;;;;4.70;99.90;;;;;;5026348;28;19976;-78
2022/04/04 05:24:35;;;;;;;;;;;4.70;99.90;;;;;;5002817;28;20007;-78
2022/04/04 05:27:02;;;;;;;;;;;4.80;99.90;;;;;;5024629;28;19940;-78
2022/04/04 05:29:29;;;;;;;;;;;4.80;99.90;;;;;;5030461;28;20376;-77
2022/04/04 05:31:55;;;;;;;;;;;4.80;99.90;;;;;;5021544;28;19929;-79
2022/04/04 05:34:22;;;;;;;;;;;4.70;99.90;;;;;;5030751;28;19925;-79
2022/04/04 05:36:48;;;;;;;;;;;4.80;99.90;;;;;;5021765;28;19932;-78
2022/04/04 05:39:15;;;;;;;;;;;4.80;99.90;;;;;;5004654;28;19929;-79
2022/04/04 05:41:42;;;;;;;;;;;4.70;99.90;;;;;;5018571;28;19959;-78
2022/04/04 05:44:08;;;;;;;;;;;4.60;99.90;;;;;;5021798;28;19925;-78
2022/04/04 05:46:35;;;;;;;;;;;4.70;99.90;;;;;;5023351;28;19936;-78
2022/04/04 05:49:01;;;;;;;;;;;4.70;99.90;;;;;;5016075;28;20384;-79
2022/04/04 05:51:28;;;;;;;;;;;4.70;99.90;;;;;;5020535;28;19932;-78
2022/04/04 05:53:55;;;;;;;;;;;4.80;99.90;;;;;;5027167;28;19935;-80
2022/04/04 05:56:22;;;;;;;;;;;4.70;99.90;;;;;;5010419;28;19925;-80
2022/04/04 05:58:48;;;;;;;;;;;4.70;99.90;;;;;;5008874;28;19926;-79
2022/04/04 06:01:15;;;;;;;;;;;4.80;99.90;;;;;;5016054;28;19926;-79
2022/04/04 06:03:41;;;;;;;;;;;4.70;99.90;;;;;;5000017;28;19929;-80
2022/04/04 06:06:08;;;;;;;;;;;4.70;99.90;;;;;;5003383;28;19933;-80
2022/04/04 06:08:34;;;;;;;;;;;4.70;99.90;;;;;;5000194;28;19936;-79
2022/04/04 06:11:01;;;;;;;;;;;4.70;99.90;;;;;;5002671;28;19926;-79
2022/04/04 06:13:27;;;;;;;;;;;4.70;99.90;;;;;;5004914;28;19940;-79
2022/04/04 06:15:54;;;;;;;;;;;4.70;99.90;;;;;;5017703;28;19927;-80
2022/04/04 06:18:21;;;;;;;;;;;4.60;99.90;;;;;;5018108;28;19926;-80
2022/04/04 06:20:47;;;;;;;;;;;4.60;99.90;;;;;;5016757;28;19931;-78
2022/04/04 06:23:14;;;;;;;;;;;4.60;99.90;;;;;;4997567;28;19925;-79
2022/04/04 06:25:41;;;;;;;;;;;4.60;99.90;;;;;;4999357;28;19936;-79
2022/04/04 06:28:08;;;;;;;;;;;4.50;99.90;;;;;;5013995;28;20318;-78
2022/04/04 06:30:35;;;;;;;;;;;4.50;99.90;;;;;;5022217;28;19937;-79
2022/04/04 06:33:02;;;;;;;;;;;4.50;99.90;;;;;;5014729;28;19925;-79
2022/04/04 06:35:28;;;;;;;;;;;4.50;99.90;;;;;;5001916;28;20274;-79
2022/04/04 06:37:55;;;;;;;;;;;4.50;99.90;;;;;;5017830;28;20396;-78
2022/04/04 06:40:22;;;;;;;;;;;4.50;99.90;;;;;;5002683;28;20016;-79
2022/04/04 06:42:49;;;;;;;;;;;4.50;99.90;;;;;;5018071;28;19981;-79
2022/04/04 06:45:17;;;;;;;;;;;4.50;99.90;;;;;;4999344;28;19925;-78
2022/04/04 06:47:43;;;;;;;;;;;4.40;99.90;;;;;;5004596;28;19969;-80
2022/04/04 06:50:10;;;;;;;;;;;4.40;99.90;;;;;;5000406;28;20336;-78
2022/04/04 06:52:37;;;;;;;;;;;4.40;99.90;;;;;;4998431;28;19933;-79
2022/04/04 06:55:05;;;;;;;;;;;4.50;99.90;;;;;;4999512;28;19924;-79
2022/04/04 06:57:31;;;;;;;;;;;4.40;99.90;;;;;;5014342;28;20048;-80
2022/04/04 06:59:58;;;;;;;;;;;4.40;99.90;;;;;;4996646;28;19933;-81
2022/04/04 07:02:24;;;;;;;;;;;4.40;99.90;;;;;;4998635;28;19925;-79
2022/04/04 07:04:51;;;;;;;;;;;4.40;99.90;;;;;;5002869;28;19925;-79
2022/04/04 07:07:17;;;;;;;;;;;4.40;99.90;;;;;;5014360;28;19925;-79
2022/04/04 07:09:44;;;;;;;;;;;4.40;99.90;;;;;;4996758;28;19929;-78
2022/04/04 07:12:11;;;;;;;;;;;4.40;99.90;;;;;;4999934;28;19933;-78
2022/04/04 07:14:37;;;;;;;;;;;4.50;99.90;;;;;;5020427;28;19926;-78
2022/04/04 07:17:04;;;;;;;;;;;4.50;99.90;;;;;;5019386;28;19929;-79
2022/04/04 07:19:33;;;;;;;;;;;4.40;99.90;;;;;;5017665;28;19932;-79
2022/04/04 07:21:59;;;;;;;;;;;4.40;99.90;;;;;;5017853;28;19926;-81
2022/04/04 07:24:26;;;;;;;;;;;4.30;99.90;;;;;;5003490;28;19936;-79
2022/04/04 07:26:53;;;;;;;;;;;4.40;99.90;;;;;;5003758;28;19936;-79
2022/04/04 07:29:19;;;;;;;;;;;4.40;99.90;;;;;;5003156;28;19932;-79
2022/04/04 07:31:46;;;;;;;;;;;4.30;99.90;;;;;;5018203;28;19936;-80
2022/04/04 07:34:12;;;;;;;;;;;4.40;99.90;;;;;;5006491;28;19925;-79
2022/04/04 07:36:40;;;;;;;;;;;4.40;99.90;;;;;;5003215;28;19925;-79
2022/04/04 07:39:06;;;;;;;;;;;4.40;99.90;;;;;;5016775;28;19926;-79
2022/04/04 07:41:33;;;;;;;;;;;4.40;99.90;;;;;;5003607;28;19937;-77
2022/04/04 07:43:59;;;;;;;;;;;4.40;99.90;;;;;;5019541;28;19926;-76
2022/04/04 07:46:26;;;;;;;;;;;4.40;99.90;;;;;;4997588;28;19929;-81
2022/04/04 07:48:55;;;;;;;;;;;4.50;99.90;;;;;;5004097;28;19925;-77
2022/04/04 07:51:21;;;;;;;;;;;4.40;99.90;;;;;;4996490;28;20361;-80
2022/04/04 07:53:48;;;;;;;;;;;4.40;99.90;;;;;;5005639;28;19925;-79
2022/04/04 07:56:15;;;;;;;;;;;4.50;99.90;;;;;;5020596;28;19932;-78
2022/04/04 07:58:42;;;;;;;;;;;4.50;99.90;;;;;;5000781;28;19925;-79
2022/04/04 08:01:08;;;;;;;;;;;4.50;99.90;;;;;;5002008;28;19926;-79
2022/04/04 08:03:35;;;;;;;;;;;4.50;99.90;;;;;;5025905;28;20269;-79
2022/04/04 08:06:01;;;;;;;;;;;4.50;99.90;;;;;;5022704;28;19972;-79
2022/04/04 08:08:29;;;;;;;;;;;4.50;99.90;;;;;;4997830;28;19929;-80
2022/04/04 08:10:57;;;;;;;;;;;4.50;99.90;;;;;;5001586;28;19972;-80
2022/04/04 08:13:24;;;;;;;;;;;4.50;99.90;;;;;;4999241;28;19984;-79
2022/04/04 08:15:51;;;;;;;;;;;4.60;99.90;;;;;;4999623;28;20365;-80
2022/04/04 08:18:17;;;;;;;;;;;4.70;99.90;;;;;;5015872;28;20320;-80
2022/04/04 08:20:44;;;;;;;;;;;4.60;99.90;;;;;;5000193;28;19925;-80
2022/04/04 08:23:10;;;;;;;;;;;4.70;99.90;;;;;;5019993;28;19940;-79
2022/04/04 08:25:37;;;;;;;;;;;4.70;99.90;;;;;;5009755;28;19936;-79
2022/04/04 08:28:03;;;;;;;;;;;4.70;99.90;;;;;;4996497;28;19944;-80
2022/04/04 08:30:30;;;;;;;;;;;4.70;99.90;;;;;;4995766;28;19972;-78
2022/04/04 08:32:57;;;;;;;;;;;4.60;99.90;;;;;;5017005;28;19933;-79
2022/04/04 08:35:24;;;;;;;;;;;4.70;99.90;;;;;;5018285;28;20020;-80
2022/04/04 08:37:51;;;;;;;;;;;4.70;99.90;;;;;;5013740;28;19925;-79
2022/04/04 08:40:18;;;;;;;;;;;4.70;99.90;;;;;;5015156;28;19968;-79
2022/04/04 08:42:45;;;;;;;;;;;4.80;99.90;;;;;;5017465;28;20385;-79
2022/04/04 08:45:12;;;;;;;;;;;4.90;99.90;;;;;;5013375;28;19933;-79
2022/04/04 08:47:38;;;;;;;;;;;4.90;99.90;;;;;;5013400;28;20000;-80
2022/04/04 08:50:05;;;;;;;;;;;4.90;99.90;;;;;;5014150;28;19925;-79
2022/04/04 08:52:32;;;;;;;;;;;5.00;99.90;;;;;;5013724;28;19926;-77
2022/04/04 08:54:59;;;;;;;;;;;5.00;99.90;;;;;;4997693;28;20387;-77
2022/04/04 08:57:25;;;;;;;;;;;5.10;99.90;;;;;;5020167;28;20280;-78
2022/04/04 08:59:52;;;;;;;;;;;5.10;99.90;;;;;;5026837;28;19948;-78
2022/04/04 09:02:18;;;;;;;;;;;5.10;99.90;;;;;;5027797;28;19932;-78
2022/04/04 09:04:45;;;;;;;;;;;5.10;99.90;;;;;;4999492;28;19932;-78
2022/04/04 09:07:12;;;;;;;;;;;5.20;99.90;;;;;;4999390;28;19932;-79
2022/04/04 09:09:38;;;;;;;;;;;5.20;99.90;;;;;;5025828;28;19925;-77
2022/04/04 09:12:05;;;;;;;;;;;5.20;99.90;;;;;;5010934;28;19932;-77
2022/04/04 09:14:32;;;;;;;;;;;5.30;99.90;;;;;;5023830;28;19930;-76
2022/04/04 09:16:59;;;;;;;;;;;5.30;99.90;;;;;;5012604;28;19925;-80
2022/04/04 09:19:25;;;;;;;;;;;5.40;99.90;;;;;;5019960;28;19926;-78
2022/04/04 09:21:52;;;;;;;;;;;5.50;99.90;;;;;;5019843;28;19925;-77
2022/04/04 09:24:18;;;;;;;;;;;5.50;99.90;;;;;;5008275;28;19925;-80
2022/04/04 09:26:45;;;;;;;;;;;5.50;99.90;;;;;;5010792;28;19972;-88
2022/04/04 09:29:12;;;;;;;;;;;5.50;99.90;;;;;;5015831;28;19925;-81
2022/04/04 09:31:39;;;;;;;;;;;5.50;99.90;;;;;;5012791;28;19930;-78
2022/04/04 09:34:05;;;;;;;;;;;5.60;99.90;;;;;;5016646;28;19929;-81
2022/04/04 09:36:32;;;;;;;;;;;5.60;99.90;;;;;;4999192;28;19926;-79
2022/04/04 09:38:59;;;;;;;;;;;5.70;99.90;;;;;;4995721;28;19987;-79
2022/04/04 09:41:27;;;;;;;;;;;5.60;99.90;;;;;;5015495;28;20312;-78
2022/04/04 09:43:54;;;;;;;;;;;5.70;99.90;;;;;;5017863;28;20558;-77
2022/04/04 09:46:21;;;;;;;;;;;5.70;99.90;;;;;;4997326;28;20020;-79
2022/04/04 09:48:47;;;;;;;;;;;5.80;99.90;;;;;;5018677;28;20016;-78
2022/04/04 09:51:14;;;;;;;;;;;5.80;99.90;;;;;;5014693;28;19929;-81
2022/04/04 09:53:41;;;;;;;;;;;5.80;99.90;;;;;;5016621;28;20008;-78
2022/04/04 09:56:09;;;;;;;;;;;5.90;99.90;;;;;;5016955;28;20303;-79
2022/04/04 09:58:38;;;;;;;;;;;5.80;99.90;;;;;;4995337;28;20349;-79
2022/04/04 10:01:05;;;;;;;;;;;5.90;99.90;;;;;;4995380;28;19976;-78
2022/04/04 10:03:31;;;;;;;;;;;5.90;99.90;;;;;;5017636;28;20024;-78
2022/04/04 10:05:58;;;;;;;;;;;6.00;99.90;;;;;;5000796;28;19983;-79
2022/04/04 10:08:25;;;;;;;;;;;6.00;99.90;;;;;;4994018;28;19929;-78
2022/04/04 10:10:51;;;;;;;;;;;6.00;99.90;;;;;;5011183;28;19933;-80
2022/04/04 10:13:18;;;;;;;;;;;5.90;99.90;;;;;;4998356;28;19936;-78
2022/04/04 10:15:44;;;;;;;;;;;6.00;99.90;;;;;;5016499;28;19993;-77
2022/04/04 10:18:11;;;;;;;;;;;6.00;99.90;;;;;;4996437;28;19925;-77
2022/04/04 10:20:37;;;;;;;;;;;6.10;99.90;;;;;;4994958;28;20030;-77
2022/04/04 10:23:04;;;;;;;;;;;6.00;99.90;;;;;;4994044;28;19930;-78
2022/04/04 10:25:31;;;;;;;;;;;6.00;99.90;;;;;;4998068;28;19925;-77
2022/04/04 10:27:59;;;;;;;;;;;6.10;99.90;;;;;;5010664;28;19934;-77
2022/04/04 10:30:25;;;;;;;;;;;6.10;99.90;;;;;;4997735;28;19933;-79
2022/04/04 10:32:52;;;;;;;;;;;6.10;99.90;;;;;;5006329;28;19933;-79
2022/04/04 10:35:18;;;;;;;;;;;6.10;99.90;;;;;;5025924;28;19930;-81
2022/04/04 10:37:45;;;;;;;;;;;6.10;99.90;;;;;;5006534;28;19933;-78
2022/04/04 10:40:11;;;;;;;;;;;6.10;99.90;;;;;;5015561;28;20012;-78
2022/04/04 10:42:38;;;;;;;;;;;6.10;99.90;;;;;;5010912;28;19925;-78
2022/04/04 10:45:05;;;;;;;;;;;6.20;99.90;;;;;;5000379;28;19932;-79
2022/04/04 10:47:31;;;;;;;;;;;6.20;99.90;;;;;;5023395;28;19929;-79
2022/04/04 10:49:58;;;;;;;;;;;6.10;99.90;;;;;;5001947;28;19930;-79
2022/04/04 10:52:24;;;;;;;;;;;6.20;99.90;;;;;;4999752;28;19944;-79
2022/04/04 10:54:51;;;;;;;;;;;6.20;99.90;;;;;;4999241;28;19940;-79
2022/04/04 10:57:17;;;;;;;;;;;6.20;99.90;;;;;;5006351;28;19929;-80
2022/04/04 10:59:44;;;;;;;;;;;6.20;99.90;;;;;;5002163;28;19929;-78
2022/04/04 11:02:11;;;;;;;;;;;6.20;99.90;;;;;;5017593;28;20021;-78
2022/04/04 11:07:37;;;;;;;;;;;6.20;99.90;;;;;;4997947;28;20622;-79
2022/04/04 11:07:39;;;;;;;;;;;6.30;99.90;;;;;;5012228;28;19925;-79
2022/04/04 11:10:06;;;;;;;;;;;6.30;99.90;;;;;;4998801;28;19930;-79
2022/04/04 11:12:33;;;;;;;;;;;6.30;99.90;;;;;;5012773;28;19929;-78
2022/04/04 11:15:01;;;;;;;;;;;6.40;99.90;;;;;;4995420;28;19929;-78
2022/04/04 11:17:36;;;;;;;;;;;6.40;99.90;;;;;;5012634;28;19933;-78
2022/04/04 11:20:04;;;;;;;;;;;6.40;99.90;;;;;;5014701;28;19932;-78
2022/04/04 11:22:30;;;;;;;;;;;6.40;99.90;;;;;;4999869;28;19985;-79
2022/04/04 11:24:58;;;;;;;;;;;6.40;99.90;;;;;;5015246;28;20471;-78
2022/04/04 11:27:25;;;;;;;;;;;6.40;99.90;;;;;;5023881;28;20647;-79
2022/04/04 11:29:51;;;;;;;;;;;6.40;99.90;;;;;;5000904;28;19929;-78
2022/04/04 11:32:19;;;;;;;;;;;6.40;99.90;;;;;;5008059;28;19925;-78
2022/04/04 11:34:45;;;;;;;;;;;6.40;99.90;;;;;;5001947;28;20040;-78
2022/04/04 11:37:17;;;;;;;;;;;6.50;99.90;;;;;;5008448;28;19929;-78
2022/04/04 11:39:43;;;;;;;;;;;6.50;99.90;;;;;;5005548;28;20673;-79
2022/04/04 11:42:10;;;;;;;;;;;6.50;99.90;;;;;;5024136;28;20292;-79
2022/04/04 11:44:37;;;;;;;;;;;6.60;99.90;;;;;;5006668;28;19944;-79
2022/04/04 11:47:04;;;;;;;;;;;6.70;99.90;;;;;;5019747;28;20381;-78
2022/04/04 11:49:31;;;;;;;;;;;6.60;99.90;;;;;;5013230;28;19953;-78
2022/04/04 11:52:02;;;;;;;;;;;6.70;99.90;;;;;;5023867;28;19968;-79
2022/04/04 11:54:29;;;;;;;;;;;6.70;99.90;;;;;;4999852;28;20351;-79
2022/04/04 11:56:57;;;;;;;;;;;6.70;99.90;;;;;;5011828;28;19929;-79
2022/04/04 11:59:24;;;;;;;;;;;6.70;99.90;;;;;;5027417;28;20353;-81
2022/04/04 12:01:51;;;;;;;;;;;6.80;99.90;;;;;;5021949;28;19925;-79
2022/04/04 12:04:18;;;;;;;;;;;6.80;99.90;;;;;;5023035;28;19931;-79
2022/04/04 12:06:45;;;;;;;;;;;6.80;99.90;;;;;;5007626;28;20003;-78
2022/04/04 12:09:13;;;;;;;;;;;6.80;99.90;;;;;;5014491;28;19928;-78
2022/04/04 12:11:39;;;;;;;;;;;6.90;99.90;;;;;;5006108;28;20083;-79
2022/04/04 12:14:06;;;;;;;;;;;6.90;99.90;;;;;;5026007;28;19933;-78
2022/04/04 12:16:33;;;;;;;;;;;6.90;99.90;;;;;;5013631;28;19948;-78
2022/04/04 12:19:00;;;;;;;;;;;7.00;99.90;;;;;;5008647;28;19936;-79
2022/04/04 12:21:27;;;;;;;;;;;7.00;99.90;;;;;;5013953;28;19925;-81
2022/04/04 12:26:37;;;;;;;;;;;7.00;99.90;;;;;;4997657;28;19925;-78
2022/04/04 12:29:07;;;;;;;;;;;7.10;99.90;;;;;;5025320;28;20305;-78
2022/04/04 12:31:33;;;;;;;;;;;7.10;99.90;;;;;;5024673;28;19980;-78
2022/04/04 12:34:02;;;;;;;;;;;7.20;99.90;;;;;;4994649;28;20415;-78
2022/04/04 12:36:29;;;;;;;;;;;7.20;99.90;;;;;;5021440;28;19933;-81
2022/04/04 12:38:55;;;;;;;;;;;7.20;99.90;;;;;;5007604;28;19933;-79
2022/04/04 12:41:22;;;;;;;;;;;7.20;99.90;;;;;;5021054;28;19925;-79
2022/04/04 12:43:48;;;;;;;;;;;7.30;99.90;;;;;;5012186;28;19935;-77
2022/04/04 12:46:15;;;;;;;;;;;7.30;99.90;;;;;;4996067;28;19925;-78
2022/04/04 12:48:43;;;;;;;;;;;7.30;99.90;;;;;;5020908;28;20020;-77
2022/04/04 12:51:10;;;;;;;;;;;7.30;99.90;;;;;;5004779;28;20004;-77
2022/04/04 12:53:37;;;;;;;;;;;7.30;99.90;;;;;;5011004;28;19933;-78
2022/04/04 12:56:03;;;;;;;;;;;7.30;99.90;;;;;;5012215;28;19933;-78
2022/04/04 12:58:30;;;;;;;;;;;7.40;99.90;;;;;;5025219;28;19991;-80
2022/04/04 13:00:56;;;;;;;;;;;7.40;99.90;;;;;;5016570;28;19936;-78
2022/04/04 13:03:23;;;;;;;;;;;7.50;99.90;;;;;;5010842;28;20380;-79
2022/04/04 13:05:49;;;;;;;;;;;7.50;99.90;;;;;;5018458;28;19980;-78
2022/04/04 13:08:16;;;;;;;;;;;7.50;99.90;;;;;;5005513;28;19932;-78
2022/04/04 13:10:43;;;;;;;;;;;7.50;99.90;;;;;;5020664;28;19925;-78
2022/04/04 13:13:09;;;;;;;;;;;7.50;99.90;;;;;;5023847;28;19940;-78
2022/04/04 13:15:36;;;;;;;;;;;7.60;99.90;;;;;;5008231;28;19936;-79
2022/04/04 13:18:03;;;;;;;;;;;7.60;99.90;;;;;;5021206;28;19929;-79
2022/04/04 13:20:29;;;;;;;;;;;7.60;99.90;;;;;;5006480;28;19933;-81
2022/04/04 13:22:56;;;;;;;;;;;7.60;99.90;;;;;;5004975;28;20288;-78
2022/04/04 13:25:22;;;;;;;;;;;7.60;99.90;;;;;;5006092;28;21184;-77
2022/04/04 13:27:49;;;;;;;;;;;7.70;99.90;;;;;;5020654;28;20496;-79
2022/04/04 13:30:16;;;;;;;;;;;7.70;99.90;;;;;;5007672;28;20553;-79
2022/04/04 13:32:42;;;;;;;;;;;7.70;99.90;;;;;;5029810;28;19984;-79
2022/04/04 13:35:09;;;;;;;;;;;7.80;99.90;;;;;;5007733;28;20494;-79
2022/04/04 13:37:35;;;;;;;;;;;7.80;99.90;;;;;;5022987;28;20734;-79
2022/04/04 13:40:02;;;;;;;;;;;7.90;99.90;;;;;;5014789;28;19935;-79
2022/04/04 13:42:29;;;;;;;;;;;7.90;99.90;;;;;;5012574;28;19933;-79
2022/04/04 13:44:55;;;;;;;;;;;8.00;99.90;;;;;;5005454;28;19932;-79
2022/04/04 13:47:22;;;;;;;;;;;8.00;99.90;;;;;;5018155;28;19932;-81
2022/04/04 13:49:48;;;;;;;;;;;8.10;99.90;;;;;;5014488;28;19939;-79
2022/04/04 13:52:15;;;;;;;;;;;8.00;99.90;;;;;;5015637;28;19976;-79
2022/04/04 13:54:42;;;;;;;;;;;8.10;99.90;;;;;;5016670;28;19929;-79
2022/04/04 13:57:09;;;;;;;;;;;8.00;99.90;;;;;;5020742;28;19933;-80
2022/04/04 13:59:35;;;;;;;;;;;8.10;99.90;;;;;;5005480;28;19932;-80
2022/04/04 14:02:02;;;;;;;;;;;8.10;99.90;;;;;;5024430;28;20501;-79
2022/04/04 14:04:29;;;;;;;;;;;8.20;99.90;;;;;;5001841;28;20388;-82
2022/04/04 14:06:55;;;;;;;;;;;8.20;99.90;;;;;;5008339;28;20358;-79
2022/04/04 14:09:22;;;;;;;;;;;8.20;99.90;;;;;;5022870;28;19940;-80
2022/04/04 14:11:48;;;;;;;;;;;8.20;99.90;;;;;;5023968;28;20578;-80
2022/04/04 14:14:15;;;;;;;;;;;8.20;99.90;;;;;;5005755;28;19937;-79
2022/04/04 14:16:41;;;;;;;;;;;8.20;99.90;;;;;;5007377;28;20499;-79
2022/04/04 14:19:09;;;;;;;;;;;8.30;99.90;;;;;;5009771;28;19929;-80
2022/04/04 14:21:36;;;;;;;;;;;8.30;99.90;;;;;;5001409;28;19936;-79
2022/04/04 14:24:02;;;;;;;;;;;8.30;99.90;;;;;;5004069;28;19932;-78
2022/04/04 14:26:29;;;;;;;;;;;8.30;99.90;;;;;;5001860;28;20427;-79
2022/04/04 14:28:57;;;;;;;;;;;8.40;99.90;;;;;;5004306;28;20554;-80
2022/04/04 14:31:26;;;;;;;;;;;8.40;99.90;;;;;;5012990;28;19925;-79